sensor_id;sensor_type;location;lat;lon;timestamp;temperature;humidity
35700;DHT22;21818;51.078;12.108;2023-03-23T00:01:53;16.80;71.70
35700;DHT22;21818;51.078;12.108;2023-03-23T00:04:19;16.80;71.60
35700;DHT22;21818;51.078;12.108;2023-03-23T00:06:46;16.80;71.60
35700;DHT22;21818;51.078;12.108;2023-03-23T00:09:13;16.80;71.50
35700;DHT22;21818;51.078;12.108;2023-03-23T00:11:41;16.80;71.40
35700;DHT22;21818;51.078;12.108;2023-03-23T00:14:07;16.80;71.30
35700;DHT22;21818;51.078;12.108;2023-03-23T00:16:38;16.80;71.40
35700;DHT22;21818;51.078;12.108;2023-03-23T00:19:07;16.80;71.40
35700;DHT22;21818;51.078;12.108;2023-03-23T00:21:37;16.70;71.40
35700;DHT22;21818;51.078;12.108;2023-03-23T00:24:12;16.80;71.30
35700;DHT22;21818;51.078;12.108;2023-03-23T00:26:43;16.80;71.40
35700;DHT22;21818;51.078;12.108;2023-03-23T00:31:44;16.80;71.10
35700;DHT22;21818;51.078;12.108;2023-03-23T00:34:23;16.90;71.00
35700;DHT22;21818;51.078;12.108;2023-03-23T00:36:52;16.90;70.80
35700;DHT22;21818;51.078;12.108;2023-03-23T00:39:23;16.90;70.80
35700;DHT22;21818;51.078;12.108;2023-03-23T00:41:52;16.90;70.70
35700;DHT22;21818;51.078;12.108;2023-03-23T00:44:18;16.90;70.80
35700;DHT22;21818;51.078;12.108;2023-03-23T00:46:45;16.80;70.80
35700;DHT22;21818;51.078;12.108;2023-03-23T00:49:12;16.80;70.90
35700;DHT22;21818;51.078;12.108;2023-03-23T00:51:39;16.80;70.90
35700;DHT22;21818;51.078;12.108;2023-03-23T00:54:05;16.80;71.00
35700;DHT22;21818;51.078;12.108;2023-03-23T00:56:31;16.80;70.80
35700;DHT22;21818;51.078;12.108;2023-03-23T00:58:57;16.80;70.80
35700;DHT22;21818;51.078;12.108;2023-03-23T01:01:22;16.80;70.70
35700;DHT22;21818;51.078;12.108;2023-03-23T01:03:48;16.80;70.70
35700;DHT22;21818;51.078;12.108;2023-03-23T01:06:15;16.90;70.70
35700;DHT22;21818;51.078;12.108;2023-03-23T01:08:41;16.90;70.60
35700;DHT22;21818;51.078;12.108;2023-03-23T01:11:16;16.90;70.60
35700;DHT22;21818;51.078;12.108;2023-03-23T01:13:42;16.90;70.50
35700;DHT22;21818;51.078;12.108;2023-03-23T01:16:09;16.80;70.60
35700;DHT22;21818;51.078;12.108;2023-03-23T01:18:35;16.90;71.00
35700;DHT22;21818;51.078;12.108;2023-03-23T01:21:06;16.80;70.40
35700;DHT22;21818;51.078;12.108;2023-03-23T01:23:33;16.80;70.40
35700;DHT22;21818;51.078;12.108;2023-03-23T01:26:06;16.80;70.30
35700;DHT22;21818;51.078;12.108;2023-03-23T01:28:33;16.70;70.30
35700;DHT22;21818;51.078;12.108;2023-03-23T01:31:07;16.60;70.30
35700;DHT22;21818;51.078;12.108;2023-03-23T01:33:33;16.60;70.40
35700;DHT22;21818;51.078;12.108;2023-03-23T01:36:04;16.50;70.70
35700;DHT22;21818;51.078;12.108;2023-03-23T01:38:30;16.50;70.80
35700;DHT22;21818;51.078;12.108;2023-03-23T01:40:56;16.50;70.80
35700;DHT22;21818;51.078;12.108;2023-03-23T01:43:22;16.50;70.90
35700;DHT22;21818;51.078;12.108;2023-03-23T01:45:47;16.50;71.00
35700;DHT22;21818;51.078;12.108;2023-03-23T01:48:18;16.40;71.20
35700;DHT22;21818;51.078;12.108;2023-03-23T01:53:27;16.40;71.60
35700;DHT22;21818;51.078;12.108;2023-03-23T01:55:54;16.30;71.60
35700;DHT22;21818;51.078;12.108;2023-03-23T01:58:25;16.30;71.50
35700;DHT22;21818;51.078;12.108;2023-03-23T02:00:53;16.20;71.60
35700;DHT22;21818;51.078;12.108;2023-03-23T02:03:21;16.10;71.50
35700;DHT22;21818;51.078;12.108;2023-03-23T02:05:48;16.10;71.90
35700;DHT22;21818;51.078;12.108;2023-03-23T02:08:15;16.00;71.90
35700;DHT22;21818;51.078;12.108;2023-03-23T02:10:43;16.00;72.20
35700;DHT22;21818;51.078;12.108;2023-03-23T02:13:10;15.90;72.30
35700;DHT22;21818;51.078;12.108;2023-03-23T02:24:49;15.90;72.30
35700;DHT22;21818;51.078;12.108;2023-03-23T02:27:03;15.90;72.20
35700;DHT22;21818;51.078;12.108;2023-03-23T02:29:56;15.80;72.40
35700;DHT22;21818;51.078;12.108;2023-03-23T02:36:02;15.70;72.90
35700;DHT22;21818;51.078;12.108;2023-03-23T02:38:40;15.70;72.90
35700;DHT22;21818;51.078;12.108;2023-03-23T02:41:10;15.80;72.90
35700;DHT22;21818;51.078;12.108;2023-03-23T02:43:40;15.70;72.90
35700;DHT22;21818;51.078;12.108;2023-03-23T02:46:08;15.70;73.00
35700;DHT22;21818;51.078;12.108;2023-03-23T02:48:36;15.70;73.10
35700;DHT22;21818;51.078;12.108;2023-03-23T02:51:05;15.70;73.00
35700;DHT22;21818;51.078;12.108;2023-03-23T02:53:34;15.70;73.00
35700;DHT22;21818;51.078;12.108;2023-03-23T02:56:02;15.70;73.00
35700;DHT22;21818;51.078;12.108;2023-03-23T02:58:30;15.70;73.00
35700;DHT22;21818;51.078;12.108;2023-03-23T03:00:56;15.70;73.00
35700;DHT22;21818;51.078;12.108;2023-03-23T03:03:27;15.70;73.00
35700;DHT22;21818;51.078;12.108;2023-03-23T03:06:14;15.80;73.00
35700;DHT22;21818;51.078;12.108;2023-03-23T03:08:56;15.80;73.00
35700;DHT22;21818;51.078;12.108;2023-03-23T03:11:24;15.90;72.90
35700;DHT22;21818;51.078;12.108;2023-03-23T03:13:55;16.00;72.90
35700;DHT22;21818;51.078;12.108;2023-03-23T03:16:28;16.00;72.80
35700;DHT22;21818;51.078;12.108;2023-03-23T03:21:34;16.10;72.80
35700;DHT22;21818;51.078;12.108;2023-03-23T03:24:03;16.10;72.60
35700;DHT22;21818;51.078;12.108;2023-03-23T03:26:30;16.20;72.70
35700;DHT22;21818;51.078;12.108;2023-03-23T03:28:57;16.20;72.60
35700;DHT22;21818;51.078;12.108;2023-03-23T03:31:32;16.30;72.50
35700;DHT22;21818;51.078;12.108;2023-03-23T03:33:59;16.30;72.60
35700;DHT22;21818;51.078;12.108;2023-03-23T03:36:29;16.30;72.50
35700;DHT22;21818;51.078;12.108;2023-03-23T03:39:02;16.30;72.50
35700;DHT22;21818;51.078;12.108;2023-03-23T03:41:30;16.30;72.40
35700;DHT22;21818;51.078;12.108;2023-03-23T03:43:55;16.30;72.40
35700;DHT22;21818;51.078;12.108;2023-03-23T03:46:21;16.30;72.40
35700;DHT22;21818;51.078;12.108;2023-03-23T03:48:47;16.30;72.40
35700;DHT22;21818;51.078;12.108;2023-03-23T03:51:12;16.30;72.40
35700;DHT22;21818;51.078;12.108;2023-03-23T03:53:38;16.20;72.40
35700;DHT22;21818;51.078;12.108;2023-03-23T03:56:04;16.30;72.50
35700;DHT22;21818;51.078;12.108;2023-03-23T03:58:30;16.20;72.40
35700;DHT22;21818;51.078;12.108;2023-03-23T04:00:59;16.20;72.50
35700;DHT22;21818;51.078;12.108;2023-03-23T04:03:26;16.20;72.50
35700;DHT22;21818;51.078;12.108;2023-03-23T04:05:53;16.20;72.30
35700;DHT22;21818;51.078;12.108;2023-03-23T04:08:21;16.30;72.50
35700;DHT22;21818;51.078;12.108;2023-03-23T04:10:47;16.40;72.50
35700;DHT22;21818;51.078;12.108;2023-03-23T04:13:13;16.40;72.40
35700;DHT22;21818;51.078;12.108;2023-03-23T04:15:39;16.40;72.40
35700;DHT22;21818;51.078;12.108;2023-03-23T04:18:05;16.40;72.30
35700;DHT22;21818;51.078;12.108;2023-03-23T04:20:31;16.40;72.40
35700;DHT22;21818;51.078;12.108;2023-03-23T04:22:57;16.30;72.30
35700;DHT22;21818;51.078;12.108;2023-03-23T04:25:23;16.30;72.50
35700;DHT22;21818;51.078;12.108;2023-03-23T04:27:50;16.20;72.70
35700;DHT22;21818;51.078;12.108;2023-03-23T04:30:21;16.20;72.70
35700;DHT22;21818;51.078;12.108;2023-03-23T04:32:48;16.20;72.90
35700;DHT22;21818;51.078;12.108;2023-03-23T04:35:17;16.10;72.90
35700;DHT22;21818;51.078;12.108;2023-03-23T04:37:43;16.10;72.90
35700;DHT22;21818;51.078;12.108;2023-03-23T04:40:10;16.10;72.90
35700;DHT22;21818;51.078;12.108;2023-03-23T04:42:40;16.10;73.00
35700;DHT22;21818;51.078;12.108;2023-03-23T04:45:07;16.10;73.10
35700;DHT22;21818;51.078;12.108;2023-03-23T04:47:35;16.20;73.10
35700;DHT22;21818;51.078;12.108;2023-03-23T04:52:33;16.30;73.00
35700;DHT22;21818;51.078;12.108;2023-03-23T04:54:59;16.30;73.10
35700;DHT22;21818;51.078;12.108;2023-03-23T04:57:24;16.30;73.20
35700;DHT22;21818;51.078;12.108;2023-03-23T04:59:53;16.30;73.20
35700;DHT22;21818;51.078;12.108;2023-03-23T05:02:18;16.30;73.10
35700;DHT22;21818;51.078;12.108;2023-03-23T05:04:44;16.30;73.20
35700;DHT22;21818;51.078;12.108;2023-03-23T05:07:11;16.30;73.20
35700;DHT22;21818;51.078;12.108;2023-03-23T05:09:36;16.30;73.20
35700;DHT22;21818;51.078;12.108;2023-03-23T05:12:06;16.20;73.10
35700;DHT22;21818;51.078;12.108;2023-03-23T05:14:32;16.20;73.30
35700;DHT22;21818;51.078;12.108;2023-03-23T05:16:58;16.20;73.40
35700;DHT22;21818;51.078;12.108;2023-03-23T05:19:23;16.20;73.40
35700;DHT22;21818;51.078;12.108;2023-03-23T05:21:49;16.10;73.40
35700;DHT22;21818;51.078;12.108;2023-03-23T05:24:14;16.10;73.50
35700;DHT22;21818;51.078;12.108;2023-03-23T05:26:40;16.10;73.40
35700;DHT22;21818;51.078;12.108;2023-03-23T05:29:05;16.10;73.40
35700;DHT22;21818;51.078;12.108;2023-03-23T05:31:31;16.10;73.30
35700;DHT22;21818;51.078;12.108;2023-03-23T05:33:57;16.10;73.30
35700;DHT22;21818;51.078;12.108;2023-03-23T05:36:23;16.00;73.20
35700;DHT22;21818;51.078;12.108;2023-03-23T05:38:51;16.00;73.30
35700;DHT22;21818;51.078;12.108;2023-03-23T05:41:16;16.10;73.40
35700;DHT22;21818;51.078;12.108;2023-03-23T05:43:42;16.10;73.20
35700;DHT22;21818;51.078;12.108;2023-03-23T05:46:08;16.20;73.00
35700;DHT22;21818;51.078;12.108;2023-03-23T05:48:34;16.20;72.90
35700;DHT22;21818;51.078;12.108;2023-03-23T05:50:59;16.30;72.80
35700;DHT22;21818;51.078;12.108;2023-03-23T05:53:25;16.30;72.80
35700;DHT22;21818;51.078;12.108;2023-03-23T05:55:51;16.30;72.70
35700;DHT22;21818;51.078;12.108;2023-03-23T05:58:18;16.30;72.60
35700;DHT22;21818;51.078;12.108;2023-03-23T06:00:43;16.30;73.00
35700;DHT22;21818;51.078;12.108;2023-03-23T06:03:10;16.30;72.60
35700;DHT22;21818;51.078;12.108;2023-03-23T06:05:42;16.30;72.70
35700;DHT22;21818;51.078;12.108;2023-03-23T06:08:09;16.30;72.80
35700;DHT22;21818;51.078;12.108;2023-03-23T06:10:35;16.40;72.90
35700;DHT22;21818;51.078;12.108;2023-03-23T06:13:02;16.30;72.90
35700;DHT22;21818;51.078;12.108;2023-03-23T06:15:28;16.30;73.00
35700;DHT22;21818;51.078;12.108;2023-03-23T06:17:58;16.30;73.00
35700;DHT22;21818;51.078;12.108;2023-03-23T06:20:24;16.30;73.00
35700;DHT22;21818;51.078;12.108;2023-03-23T06:22:50;16.30;73.10
35700;DHT22;21818;51.078;12.108;2023-03-23T06:25:17;16.30;73.10
35700;DHT22;21818;51.078;12.108;2023-03-23T06:27:43;16.40;73.00
35700;DHT22;21818;51.078;12.108;2023-03-23T06:30:09;16.40;72.90
35700;DHT22;21818;51.078;12.108;2023-03-23T06:32:36;16.40;72.90
35700;DHT22;21818;51.078;12.108;2023-03-23T06:35:03;16.40;72.90
35700;DHT22;21818;51.078;12.108;2023-03-23T06:37:29;16.30;72.90
35700;DHT22;21818;51.078;12.108;2023-03-23T06:39:55;16.40;72.90
35700;DHT22;21818;51.078;12.108;2023-03-23T06:42:23;16.40;72.90
35700;DHT22;21818;51.078;12.108;2023-03-23T06:44:52;16.50;72.80
35700;DHT22;21818;51.078;12.108;2023-03-23T06:47:18;16.50;72.80
35700;DHT22;21818;51.078;12.108;2023-03-23T06:49:44;16.40;72.80
35700;DHT22;21818;51.078;12.108;2023-03-23T06:52:09;16.50;72.90
35700;DHT22;21818;51.078;12.108;2023-03-23T06:54:35;16.50;72.90
35700;DHT22;21818;51.078;12.108;2023-03-23T06:57:01;16.50;72.90
35700;DHT22;21818;51.078;12.108;2023-03-23T06:59:26;16.50;72.90
35700;DHT22;21818;51.078;12.108;2023-03-23T07:01:52;16.50;73.20
35700;DHT22;21818;51.078;12.108;2023-03-23T07:04:18;16.50;73.00
35700;DHT22;21818;51.078;12.108;2023-03-23T07:06:43;16.50;73.10
35700;DHT22;21818;51.078;12.108;2023-03-23T07:09:09;16.50;73.10
35700;DHT22;21818;51.078;12.108;2023-03-23T07:11:35;16.40;73.20
35700;DHT22;21818;51.078;12.108;2023-03-23T07:14:01;16.40;73.20
35700;DHT22;21818;51.078;12.108;2023-03-23T07:16:26;16.40;73.20
35700;DHT22;21818;51.078;12.108;2023-03-23T07:18:52;16.50;73.30
35700;DHT22;21818;51.078;12.108;2023-03-23T07:21:18;16.40;73.30
35700;DHT22;21818;51.078;12.108;2023-03-23T07:23:43;16.50;73.30
35700;DHT22;21818;51.078;12.108;2023-03-23T07:26:11;16.50;73.30
35700;DHT22;21818;51.078;12.108;2023-03-23T07:28:38;16.50;73.20
35700;DHT22;21818;51.078;12.108;2023-03-23T07:31:05;16.50;73.30
35700;DHT22;21818;51.078;12.108;2023-03-23T07:33:30;16.50;73.30
35700;DHT22;21818;51.078;12.108;2023-03-23T07:35:58;16.50;73.20
35700;DHT22;21818;51.078;12.108;2023-03-23T07:38:24;16.60;73.30
35700;DHT22;21818;51.078;12.108;2023-03-23T07:40:54;16.60;73.20
35700;DHT22;21818;51.078;12.108;2023-03-23T07:43:20;16.60;73.20
35700;DHT22;21818;51.078;12.108;2023-03-23T07:45:46;16.60;73.20
35700;DHT22;21818;51.078;12.108;2023-03-23T07:48:12;16.60;73.20
35700;DHT22;21818;51.078;12.108;2023-03-23T07:50:38;16.60;73.30
35700;DHT22;21818;51.078;12.108;2023-03-23T07:53:04;16.70;73.30
35700;DHT22;21818;51.078;12.108;2023-03-23T07:55:30;16.70;73.20
35700;DHT22;21818;51.078;12.108;2023-03-23T07:57:56;16.70;73.20
35700;DHT22;21818;51.078;12.108;2023-03-23T08:00:22;16.70;73.10
35700;DHT22;21818;51.078;12.108;2023-03-23T08:02:53;16.70;73.20
35700;DHT22;21818;51.078;12.108;2023-03-23T08:05:21;16.70;73.30
35700;DHT22;21818;51.078;12.108;2023-03-23T08:07:47;16.70;73.20
35700;DHT22;21818;51.078;12.108;2023-03-23T08:10:14;16.70;73.20
35700;DHT22;21818;51.078;12.108;2023-03-23T08:12:42;16.70;73.20
35700;DHT22;21818;51.078;12.108;2023-03-23T08:15:09;16.80;73.20
35700;DHT22;21818;51.078;12.108;2023-03-23T08:17:38;16.80;73.20
35700;DHT22;21818;51.078;12.108;2023-03-23T08:20:04;16.80;73.20
35700;DHT22;21818;51.078;12.108;2023-03-23T08:22:34;16.80;73.20
35700;DHT22;21818;51.078;12.108;2023-03-23T08:25:02;16.80;73.10
35700;DHT22;21818;51.078;12.108;2023-03-23T08:27:29;16.90;73.20
35700;DHT22;21818;51.078;12.108;2023-03-23T08:29:55;16.90;73.10
35700;DHT22;21818;51.078;12.108;2023-03-23T08:32:20;16.90;73.10
35700;DHT22;21818;51.078;12.108;2023-03-23T08:34:46;16.90;73.20
35700;DHT22;21818;51.078;12.108;2023-03-23T08:37:12;16.90;73.20
35700;DHT22;21818;51.078;12.108;2023-03-23T08:39:38;16.90;73.20
35700;DHT22;21818;51.078;12.108;2023-03-23T08:42:04;16.90;73.20
35700;DHT22;21818;51.078;12.108;2023-03-23T08:44:29;17.00;73.20
35700;DHT22;21818;51.078;12.108;2023-03-23T08:46:55;17.00;73.20
35700;DHT22;21818;51.078;12.108;2023-03-23T08:49:22;17.00;73.10
35700;DHT22;21818;51.078;12.108;2023-03-23T08:51:48;17.00;73.00
35700;DHT22;21818;51.078;12.108;2023-03-23T08:54:14;17.10;73.10
35700;DHT22;21818;51.078;12.108;2023-03-23T08:56:39;17.10;73.00
35700;DHT22;21818;51.078;12.108;2023-03-23T08:59:05;17.10;73.00
35700;DHT22;21818;51.078;12.108;2023-03-23T09:01:32;17.10;72.90
35700;DHT22;21818;51.078;12.108;2023-03-23T09:03:58;17.10;72.90
35700;DHT22;21818;51.078;12.108;2023-03-23T09:06:25;17.10;72.90
35700;DHT22;21818;51.078;12.108;2023-03-23T09:08:50;17.20;72.90
35700;DHT22;21818;51.078;12.108;2023-03-23T09:11:16;17.20;72.80
35700;DHT22;21818;51.078;12.108;2023-03-23T09:13:42;17.20;72.70
35700;DHT22;21818;51.078;12.108;2023-03-23T09:16:08;17.30;72.80
35700;DHT22;21818;51.078;12.108;2023-03-23T09:18:34;17.30;72.70
35700;DHT22;21818;51.078;12.108;2023-03-23T09:21:01;17.30;72.60
35700;DHT22;21818;51.078;12.108;2023-03-23T09:23:27;17.40;72.60
35700;DHT22;21818;51.078;12.108;2023-03-23T09:25:53;17.30;72.60
35700;DHT22;21818;51.078;12.108;2023-03-23T09:28:19;17.40;72.60
35700;DHT22;21818;51.078;12.108;2023-03-23T09:30:45;17.40;72.60
35700;DHT22;21818;51.078;12.108;2023-03-23T09:33:13;17.40;72.60
35700;DHT22;21818;51.078;12.108;2023-03-23T09:35:39;17.40;72.60
35700;DHT22;21818;51.078;12.108;2023-03-23T09:38:07;17.40;72.60
35700;DHT22;21818;51.078;12.108;2023-03-23T09:40:38;17.40;72.60
35700;DHT22;21818;51.078;12.108;2023-03-23T09:45:59;17.40;72.50
35700;DHT22;21818;51.078;12.108;2023-03-23T09:51:51;17.50;72.30
35700;DHT22;21818;51.078;12.108;2023-03-23T09:54:29;17.50;72.30
35700;DHT22;21818;51.078;12.108;2023-03-23T09:56:58;17.50;72.20
35700;DHT22;21818;51.078;12.108;2023-03-23T09:59:29;17.40;72.10
35700;DHT22;21818;51.078;12.108;2023-03-23T10:02:21;17.40;72.00
35700;DHT22;21818;51.078;12.108;2023-03-23T10:04:55;17.40;72.50
35700;DHT22;21818;51.078;12.108;2023-03-23T10:07:24;17.40;72.00
35700;DHT22;21818;51.078;12.108;2023-03-23T10:09:59;17.40;72.00
35700;DHT22;21818;51.078;12.108;2023-03-23T10:13:07;17.40;71.80
35700;DHT22;21818;51.078;12.108;2023-03-23T10:15:30;17.40;71.80
35700;DHT22;21818;51.078;12.108;2023-03-23T10:18:04;17.40;71.70
35700;DHT22;21818;51.078;12.108;2023-03-23T10:20:48;17.50;71.70
35700;DHT22;21818;51.078;12.108;2023-03-23T10:28:46;17.50;71.40
35700;DHT22;21818;51.078;12.108;2023-03-23T10:31:23;17.50;71.40
35700;DHT22;21818;51.078;12.108;2023-03-23T10:33:53;17.50;71.40
35700;DHT22;21818;51.078;12.108;2023-03-23T10:36:31;17.50;71.40
35700;DHT22;21818;51.078;12.108;2023-03-23T10:39:17;17.50;71.40
35700;DHT22;21818;51.078;12.108;2023-03-23T10:41:44;17.50;71.40
35700;DHT22;21818;51.078;12.108;2023-03-23T10:44:18;17.40;71.40
35700;DHT22;21818;51.078;12.108;2023-03-23T10:49:22;17.50;71.40
35700;DHT22;21818;51.078;12.108;2023-03-23T10:55:01;17.50;71.30
35700;DHT22;21818;51.078;12.108;2023-03-23T10:57:31;17.50;71.30
35700;DHT22;21818;51.078;12.108;2023-03-23T11:00:14;17.50;71.30
35700;DHT22;21818;51.078;12.108;2023-03-23T11:03:29;17.50;71.10
35700;DHT22;21818;51.078;12.108;2023-03-23T11:07:59;17.60;70.90
35700;DHT22;21818;51.078;12.108;2023-03-23T11:10:35;17.60;71.00
35700;DHT22;21818;51.078;12.108;2023-03-23T11:13:01;17.60;71.00
35700;DHT22;21818;51.078;12.108;2023-03-23T11:15:35;17.60;70.90
35700;DHT22;21818;51.078;12.108;2023-03-23T11:18:11;17.60;70.80
35700;DHT22;21818;51.078;12.108;2023-03-23T11:20:43;17.60;70.70
35700;DHT22;21818;51.078;12.108;2023-03-23T11:23:15;17.60;70.60
35700;DHT22;21818;51.078;12.108;2023-03-23T11:26:24;17.60;70.60
35700;DHT22;21818;51.078;12.108;2023-03-23T11:28:57;17.70;71.00
35700;DHT22;21818;51.078;12.108;2023-03-23T11:31:28;17.60;70.50
35700;DHT22;21818;51.078;12.108;2023-03-23T11:34:09;17.60;70.50
35700;DHT22;21818;51.078;12.108;2023-03-23T11:36:39;17.60;70.60
35700;DHT22;21818;51.078;12.108;2023-03-23T11:39:26;17.70;70.60
35700;DHT22;21818;51.078;12.108;2023-03-23T11:41:52;17.70;70.50
35700;DHT22;21818;51.078;12.108;2023-03-23T11:44:21;17.70;70.50
35700;DHT22;21818;51.078;12.108;2023-03-23T11:47:04;17.70;70.50
35700;DHT22;21818;51.078;12.108;2023-03-23T11:50:10;17.70;70.50
35700;DHT22;21818;51.078;12.108;2023-03-23T11:55:37;17.70;70.60
35700;DHT22;21818;51.078;12.108;2023-03-23T11:58:11;17.70;70.50
35700;DHT22;21818;51.078;12.108;2023-03-23T12:06:48;17.70;70.40
35700;DHT22;21818;51.078;12.108;2023-03-23T12:09:43;17.70;70.40
35700;DHT22;21818;51.078;12.108;2023-03-23T12:25:08;17.80;70.30
35700;DHT22;21818;51.078;12.108;2023-03-23T12:27:56;17.80;70.30
35700;DHT22;21818;51.078;12.108;2023-03-23T12:30:47;17.90;70.20
35700;DHT22;21818;51.078;12.108;2023-03-23T12:40:57;18.20;69.70
35700;DHT22;21818;51.078;12.108;2023-03-23T12:43:43;18.20;69.70
35700;DHT22;21818;51.078;12.108;2023-03-23T12:54:24;18.40;68.80
35700;DHT22;21818;51.078;12.108;2023-03-23T12:57:23;18.50;68.50
35700;DHT22;21818;51.078;12.108;2023-03-23T13:00:07;18.60;67.80
35700;DHT22;21818;51.078;12.108;2023-03-23T13:02:50;18.60;67.90
35700;DHT22;21818;51.078;12.108;2023-03-23T13:08:14;18.50;67.80
35700;DHT22;21818;51.078;12.108;2023-03-23T13:10:49;18.50;67.70
35700;DHT22;21818;51.078;12.108;2023-03-23T13:13:26;18.60;67.50
35700;DHT22;21818;51.078;12.108;2023-03-23T13:19:08;18.50;67.50
35700;DHT22;21818;51.078;12.108;2023-03-23T13:24:25;18.50;67.60
35700;DHT22;21818;51.078;12.108;2023-03-23T13:26:53;18.50;67.60
35700;DHT22;21818;51.078;12.108;2023-03-23T13:29:22;18.40;67.60
35700;DHT22;21818;51.078;12.108;2023-03-23T13:32:03;18.40;67.70
35700;DHT22;21818;51.078;12.108;2023-03-23T13:34:31;18.30;67.80
35700;DHT22;21818;51.078;12.108;2023-03-23T13:37:05;18.30;68.00
35700;DHT22;21818;51.078;12.108;2023-03-23T13:39:35;18.20;68.00
35700;DHT22;21818;51.078;12.108;2023-03-23T13:50:50;18.10;68.00
35700;DHT22;21818;51.078;12.108;2023-03-23T13:52:52;18.00;68.00
35700;DHT22;21818;51.078;12.108;2023-03-23T14:03:35;18.00;68.00
35700;DHT22;21818;51.078;12.108;2023-03-23T14:06:05;18.00;67.90
35700;DHT22;21818;51.078;12.108;2023-03-23T14:11:00;17.90;68.20
35700;DHT22;21818;51.078;12.108;2023-03-23T14:13:43;17.90;68.20
35700;DHT22;21818;51.078;12.108;2023-03-23T14:16:48;17.90;68.30
35700;DHT22;21818;51.078;12.108;2023-03-23T14:21:50;17.80;68.30
35700;DHT22;21818;51.078;12.108;2023-03-23T14:24:19;17.80;68.30
35700;DHT22;21818;51.078;12.108;2023-03-23T14:26:45;17.80;68.40
35700;DHT22;21818;51.078;12.108;2023-03-23T14:29:12;17.80;68.50
35700;DHT22;21818;51.078;12.108;2023-03-23T14:31:39;17.80;68.50
35700;DHT22;21818;51.078;12.108;2023-03-23T14:34:18;17.80;68.70
35700;DHT22;21818;51.078;12.108;2023-03-23T14:36:44;17.80;68.80
35700;DHT22;21818;51.078;12.108;2023-03-23T14:39:25;17.80;68.80
35700;DHT22;21818;51.078;12.108;2023-03-23T14:41:53;17.80;68.90
35700;DHT22;21818;51.078;12.108;2023-03-23T14:44:24;17.90;68.90
35700;DHT22;21818;51.078;12.108;2023-03-23T14:46:52;17.90;68.80
35700;DHT22;21818;51.078;12.108;2023-03-23T14:49:30;17.90;69.00
35700;DHT22;21818;51.078;12.108;2023-03-23T14:51:57;17.90;69.00
35700;DHT22;21818;51.078;12.108;2023-03-23T14:54:28;17.80;69.00
35700;DHT22;21818;51.078;12.108;2023-03-23T14:56:54;17.80;69.00
35700;DHT22;21818;51.078;12.108;2023-03-23T14:59:20;17.80;69.10
35700;DHT22;21818;51.078;12.108;2023-03-23T15:01:48;17.80;69.20
35700;DHT22;21818;51.078;12.108;2023-03-23T15:04:20;17.70;69.20
35700;DHT22;21818;51.078;12.108;2023-03-23T15:07:00;17.70;69.40
35700;DHT22;21818;51.078;12.108;2023-03-23T15:09:27;17.60;69.50
35700;DHT22;21818;51.078;12.108;2023-03-23T15:12:02;17.60;69.60
35700;DHT22;21818;51.078;12.108;2023-03-23T15:14:59;17.50;69.60
35700;DHT22;21818;51.078;12.108;2023-03-23T15:17:29;17.50;69.70
35700;DHT22;21818;51.078;12.108;2023-03-23T15:19:56;17.50;69.80
35700;DHT22;21818;51.078;12.108;2023-03-23T15:22:25;17.40;69.70
35700;DHT22;21818;51.078;12.108;2023-03-23T15:24:53;17.40;70.30
35700;DHT22;21818;51.078;12.108;2023-03-23T15:27:29;17.40;69.80
35700;DHT22;21818;51.078;12.108;2023-03-23T15:29:57;17.50;69.70
35700;DHT22;21818;51.078;12.108;2023-03-23T15:32:44;17.50;69.70
35700;DHT22;21818;51.078;12.108;2023-03-23T15:35:21;17.50;69.60
35700;DHT22;21818;51.078;12.108;2023-03-23T15:40:53;17.50;69.70
35700;DHT22;21818;51.078;12.108;2023-03-23T15:43:33;17.50;69.60
35700;DHT22;21818;51.078;12.108;2023-03-23T15:48:30;17.60;69.60
35700;DHT22;21818;51.078;12.108;2023-03-23T15:50:56;17.60;69.50
35700;DHT22;21818;51.078;12.108;2023-03-23T15:53:35;17.60;69.50
35700;DHT22;21818;51.078;12.108;2023-03-23T15:56:03;17.70;69.50
35700;DHT22;21818;51.078;12.108;2023-03-23T15:58:30;17.70;69.50
35700;DHT22;21818;51.078;12.108;2023-03-23T16:00:56;17.70;69.40
35700;DHT22;21818;51.078;12.108;2023-03-23T16:03:27;17.70;69.40
35700;DHT22;21818;51.078;12.108;2023-03-23T16:05:55;17.80;69.40
35700;DHT22;21818;51.078;12.108;2023-03-23T16:08:22;17.80;69.40
35700;DHT22;21818;51.078;12.108;2023-03-23T16:10:48;17.80;69.40
35700;DHT22;21818;51.078;12.108;2023-03-23T16:13:13;17.70;69.40
35700;DHT22;21818;51.078;12.108;2023-03-23T16:15:39;17.70;69.40
35700;DHT22;21818;51.078;12.108;2023-03-23T16:18:05;17.70;69.50
35700;DHT22;21818;51.078;12.108;2023-03-23T16:20:30;17.70;69.60
35700;DHT22;21818;51.078;12.108;2023-03-23T16:22:57;17.70;69.60
35700;DHT22;21818;51.078;12.108;2023-03-23T16:25:23;17.70;69.60
35700;DHT22;21818;51.078;12.108;2023-03-23T16:27:49;17.70;69.60
35700;DHT22;21818;51.078;12.108;2023-03-23T16:30:24;17.60;69.60
35700;DHT22;21818;51.078;12.108;2023-03-23T16:32:50;17.60;69.70
35700;DHT22;21818;51.078;12.108;2023-03-23T16:35:16;17.60;69.70
35700;DHT22;21818;51.078;12.108;2023-03-23T16:37:49;17.60;69.90
35700;DHT22;21818;51.078;12.108;2023-03-23T16:40:17;17.50;69.90
35700;DHT22;21818;51.078;12.108;2023-03-23T16:42:43;17.50;70.10
35700;DHT22;21818;51.078;12.108;2023-03-23T16:45:10;17.40;70.20
35700;DHT22;21818;51.078;12.108;2023-03-23T16:47:36;17.40;70.20
35700;DHT22;21818;51.078;12.108;2023-03-23T16:50:02;17.40;70.20
35700;DHT22;21818;51.078;12.108;2023-03-23T16:52:28;17.40;70.20
35700;DHT22;21818;51.078;12.108;2023-03-23T16:54:53;17.40;70.30
35700;DHT22;21818;51.078;12.108;2023-03-23T16:57:19;17.40;70.40
35700;DHT22;21818;51.078;12.108;2023-03-23T16:59:44;17.30;70.40
35700;DHT22;21818;51.078;12.108;2023-03-23T17:02:11;17.30;70.50
35700;DHT22;21818;51.078;12.108;2023-03-23T17:04:42;17.30;70.60
35700;DHT22;21818;51.078;12.108;2023-03-23T17:07:08;17.30;70.60
35700;DHT22;21818;51.078;12.108;2023-03-23T17:09:33;17.30;70.80
35700;DHT22;21818;51.078;12.108;2023-03-23T17:11:59;17.20;70.70
35700;DHT22;21818;51.078;12.108;2023-03-23T17:14:25;17.20;70.90
35700;DHT22;21818;51.078;12.108;2023-03-23T17:16:50;17.10;71.00
35700;DHT22;21818;51.078;12.108;2023-03-23T17:19:16;17.10;71.10
35700;DHT22;21818;51.078;12.108;2023-03-23T17:21:42;17.10;71.10
35700;DHT22;21818;51.078;12.108;2023-03-23T17:24:08;17.10;71.10
35700;DHT22;21818;51.078;12.108;2023-03-23T17:26:34;17.10;71.30